Time;durP1;ratioP1;P1;durP2;ratioP2;P2;SDS_P1;SDS_P2;PMS_P1;PMS_P2;Temp;Humidity;BMP_temperature;BMP_pressure;BME280_temperature;BME280_humidity;BME280_pressure;Samples;Min_cycle;Max_cycle;Signal;HPM_P1;HPM_P2
2023/04/15 00:00:56;;;;;;;4.03;1.85;;;;;;;9.04;90.36;96847.13;4455618;32;20101;-79
2023/04/15 00:03:23;;;;;;;4.47;2.08;;;;;;;10.17;85.01;96843.16;4455437;32;20170;-79
2023/04/15 00:05:51;;;;;;;4.87;1.95;;;;;;;10.38;83.97;96844.47;4455233;32;20108;-78
2023/04/15 00:08:18;;;;;;;4.70;2.10;;;;;;;10.28;84.49;96833.06;4456489;32;20229;-78
2023/04/15 00:10:45;;;;;;;4.05;2.00;;;;;;;10.10;84.42;96833.25;4456664;32;20093;-78
2023/04/15 00:13:12;;;;;;;5.20;2.20;;;;;;;9.33;88.71;96837.78;4455809;32;20460;-78
2023/04/15 00:15:39;;;;;;;6.60;2.15;;;;;;;9.91;87.52;96837.00;4456486;32;20081;-79
2023/04/15 00:18:06;;;;;;;5.05;2.25;;;;;;;9.27;90.97;96841.56;4456131;32;20099;-79
2023/04/15 00:20:34;;;;;;;5.43;2.28;;;;;;;9.15;92.69;96843.06;4456617;32;20089;-79
2023/04/15 00:23:02;;;;;;;5.68;2.22;;;;;;;9.78;88.00;96844.59;4456152;32;20584;-78
2023/04/15 00:25:30;;;;;;;7.47;2.75;;;;;;;9.25;90.50;96845.94;4456159;32;20103;-78
2023/04/15 00:27:57;;;;;;;8.70;3.40;;;;;;;9.81;88.38;96837.53;4456421;32;20172;-78
2023/04/15 00:30:25;;;;;;;8.00;3.42;;;;;;;9.91;87.77;96845.56;4456540;32;20138;-78
2023/04/15 00:32:52;;;;;;;8.52;3.40;;;;;;;10.02;88.56;96850.06;4456056;32;20149;-78
2023/04/15 00:35:19;;;;;;;6.82;2.87;;;;;;;10.18;86.69;96842.25;4456421;32;20089;-78
2023/04/15 00:37:46;;;;;;;7.32;3.00;;;;;;;9.67;88.67;96842.66;4456410;32;20107;-78
2023/04/15 00:40:16;;;;;;;9.02;3.58;;;;;;;9.83;88.75;96830.53;4456001;32;20094;-78
2023/04/15 00:42:44;;;;;;;9.73;3.45;;;;;;;9.24;91.93;96829.66;4455161;32;20161;-79
2023/04/15 00:45:11;;;;;;;8.15;2.90;;;;;;;9.83;88.42;96832.28;4456447;32;20397;-78
2023/04/15 00:47:41;;;;;;;8.07;3.12;;;;;;;8.84;94.02;96838.81;4455926;32;20371;-78
2023/04/15 00:50:08;;;;;;;10.13;3.50;;;;;;;9.21;92.69;96841.88;4456370;32;20525;-79
2023/04/15 00:52:36;;;;;;;7.97;3.08;;;;;;;8.73;96.43;96842.88;4456292;32;20101;-79
2023/04/15 00:55:03;;;;;;;8.80;3.60;;;;;;;9.15;92.54;96849.97;4455055;32;20145;-79
2023/04/15 00:57:30;;;;;;;7.70;3.00;;;;;;;8.75;95.22;96846.19;4456379;32;20487;-79
2023/04/15 00:59:58;;;;;;;8.52;3.80;;;;;;;9.20;91.53;96842.81;4455095;32;20155;-79
2023/04/15 01:02:24;;;;;;;9.25;3.45;;;;;;;9.36;92.42;96842.75;4455753;32;20101;-79
2023/04/15 01:04:52;;;;;;;10.48;4.15;;;;;;;9.81;89.39;96844.44;4456279;32;20135;-79
2023/04/15 01:07:18;;;;;;;6.05;2.87;;;;;;;9.65;89.77;96844.50;4455890;32;20077;-78
2023/04/15 01:09:46;;;;;;;8.02;3.15;;;;;;;9.39;90.40;96846.00;4455938;32;20105;-78
2023/04/15 01:12:15;;;;;;;7.47;2.95;;;;;;;9.30;91.45;96845.69;4454631;32;20097;-78
2023/04/15 01:14:42;;;;;;;9.27;3.35;;;;;;;9.41;90.59;96854.47;4454565;32;20100;-78
2023/04/15 01:17:09;;;;;;;9.50;3.33;;;;;;;9.33;90.92;96851.47;4456158;32;20096;-78
2023/04/15 01:19:36;;;;;;;7.45;2.75;;;;;;;9.62;88.81;96854.16;4455900;32;20105;-78
2023/04/15 01:22:04;;;;;;;6.47;2.58;;;;;;;9.85;87.14;96846.72;4455881;32;20101;-79
2023/04/15 01:24:32;;;;;;;7.57;2.90;;;;;;;9.78;87.88;96842.88;4456091;32;20443;-78
2023/04/15 01:26:59;;;;;;;7.70;3.37;;;;;;;9.65;89.46;96851.38;4454844;32;20398;-79
2023/04/15 01:29:26;;;;;;;7.47;2.90;;;;;;;9.37;91.43;96847.84;4454431;32;20105;-79
2023/04/15 01:31:54;;;;;;;8.02;3.37;;;;;;;9.57;90.09;96847.53;4455699;32;20215;-79
2023/04/15 01:34:22;;;;;;;8.05;3.10;;;;;;;10.27;85.73;96847.69;4455895;32;20410;-78
2023/04/15 01:36:49;;;;;;;7.50;3.42;;;;;;;9.61;89.43;96850.75;4454393;32;20085;-78
2023/04/15 01:39:15;;;;;;;7.57;3.05;;;;;;;9.08;92.96;96849.47;4455958;32;20097;-78
2023/04/15 01:41:42;;;;;;;6.00;2.70;;;;;;;9.80;89.72;96850.50;4455869;32;20158;-78
2023/04/15 01:44:09;;;;;;;8.25;3.33;;;;;;;9.51;91.23;96859.91;4455484;32;20084;-78
2023/04/15 01:46:36;;;;;;;8.07;3.15;;;;;;;9.80;90.08;96850.50;4455845;32;20157;-78
2023/04/15 01:49:03;;;;;;;7.78;3.40;;;;;;;8.96;93.35;96853.56;4455701;32;20148;-78
2023/04/15 01:51:31;;;;;;;8.73;3.90;;;;;;;9.01;93.94;96855.84;4455446;32;20116;-78
2023/04/15 01:53:57;;;;;;;8.32;3.50;;;;;;;9.31;92.55;96855.06;4455664;32;20081;-78
2023/04/15 01:56:25;;;;;;;9.95;4.05;;;;;;;8.89;95.78;96859.94;4455394;32;20111;-78
2023/04/15 01:58:52;;;;;;;9.15;3.40;;;;;;;9.32;92.44;96862.69;4455564;32;20363;-78
2023/04/15 02:01:19;;;;;;;6.78;3.00;;;;;;;9.10;93.71;96854.53;4455684;32;20097;-78
2023/04/15 02:03:46;;;;;;;6.97;3.03;;;;;;;9.76;90.76;96865.28;4455023;32;20155;-78
2023/04/15 02:06:14;;;;;;;7.75;3.12;;;;;;;9.07;94.62;96857.28;4455905;32;20111;-78
2023/04/15 02:08:41;;;;;;;8.15;3.40;;;;;;;9.94;89.08;96855.66;4457442;32;20162;-78
2023/04/15 02:11:08;;;;;;;8.13;3.22;;;;;;;9.26;92.89;96870.78;4457006;32;20092;-79
2023/04/15 02:13:35;;;;;;;8.50;3.42;;;;;;;9.49;91.75;96857.44;4457403;32;20183;-79
2023/04/15 02:16:02;;;;;;;7.82;3.28;;;;;;;9.21;93.06;96872.75;4457332;32;20076;-78
2023/04/15 02:18:29;;;;;;;7.87;3.25;;;;;;;9.28;92.08;96867.19;4455818;32;20112;-78
2023/04/15 02:20:57;;;;;;;8.25;3.33;;;;;;;8.73;95.84;96872.00;4457520;32;20112;-78
2023/04/15 02:23:24;;;;;;;8.30;3.70;;;;;;;8.68;96.01;96873.97;4457245;32;20103;-78
2023/04/15 02:25:51;;;;;;;8.13;3.30;;;;;;;8.82;96.52;96870.63;4456877;32;20101;-78
2023/04/15 02:28:20;;;;;;;9.98;3.60;;;;;;;9.21;92.92;96865.03;4457250;32;20093;-78
2023/04/15 02:30:51;;;;;;;9.82;3.87;;;;;;;9.66;90.72;96869.31;4457330;32;20156;-78
2023/04/15 02:33:20;;;;;;;10.98;3.72;;;;;;;9.31;92.68;96866.19;4455545;32;20620;-79
2023/04/15 02:35:47;;;;;;;10.10;3.80;;;;;;;9.64;90.39;96860.03;4456010;32;20524;-79
2023/04/15 02:38:15;;;;;;;8.38;3.58;;;;;;;9.64;90.30;96863.44;4456075;32;20116;-79
2023/04/15 02:40:42;;;;;;;11.02;4.03;;;;;;;9.62;90.85;96857.56;4456999;32;20101;-79
2023/04/15 02:43:09;;;;;;;10.80;4.35;;;;;;;9.71;89.80;96862.16;4457176;32;20557;-79
2023/04/15 02:45:36;;;;;;;11.30;4.37;;;;;;;9.38;91.50;96861.53;4456880;32;20107;-79
2023/04/15 02:48:05;;;;;;;10.15;4.05;;;;;;;9.65;91.29;96861.69;4457244;32;20089;-79
2023/04/15 02:50:32;;;;;;;10.27;4.50;;;;;;;9.75;90.39;96857.66;4457041;32;20175;-78
2023/04/15 02:53:00;;;;;;;10.20;3.95;;;;;;;9.94;89.12;96854.84;4456682;32;20504;-79
2023/04/15 02:55:28;;;;;;;10.13;3.60;;;;;;;9.22;92.16;96858.97;4457071;32;20104;-79
2023/04/15 02:57:57;;;;;;;9.05;3.58;;;;;;;9.59;90.87;96854.34;4457080;32;20127;-79
2023/04/15 03:00:24;;;;;;;9.02;3.90;;;;;;;10.32;86.69;96857.75;4456872;32;20148;-79
2023/04/15 03:02:55;;;;;;;9.18;4.05;;;;;;;10.45;85.81;96857.84;4457016;32;20128;-79
2023/04/15 03:05:24;;;;;;;8.65;3.95;;;;;;;10.06;87.68;96854.09;4457177;32;20081;-79
2023/04/15 03:07:51;;;;;;;10.13;4.35;;;;;;;10.13;88.47;96851.09;4456632;32;20448;-79
2023/04/15 03:10:19;;;;;;;9.68;3.90;;;;;;;9.64;92.25;96853.13;4457142;32;20089;-79
2023/04/15 03:12:45;;;;;;;8.10;3.70;;;;;;;9.52;92.11;96849.53;4456493;32;20100;-79
2023/04/15 03:15:12;;;;;;;9.48;3.95;;;;;;;10.01;88.79;96848.41;4456619;32;20146;-78
2023/04/15 03:17:39;;;;;;;9.25;3.92;;;;;;;9.89;89.71;96847.41;4456661;32;20151;-79
2023/04/15 03:20:07;;;;;;;9.88;4.20;;;;;;;9.63;91.27;96848.91;4456874;32;20102;-79
2023/04/15 03:22:34;;;;;;;10.48;4.20;;;;;;;9.57;92.00;96844.13;4456558;32;20107;-79
2023/04/15 03:25:01;;;;;;;9.30;4.18;;;;;;;10.63;86.35;96856.69;4456937;32;20076;-79
2023/04/15 03:27:28;;;;;;;10.88;4.37;;;;;;;9.67;90.74;96850.38;4456923;32;20481;-79
2023/04/15 03:29:55;;;;;;;10.85;4.85;;;;;;;9.83;89.82;96848.56;4456477;32;20454;-78
2023/04/15 03:32:22;;;;;;;11.60;4.97;;;;;;;9.97;88.30;96849.50;4456735;32;20089;-78
2023/04/15 03:34:49;;;;;;;10.48;4.85;;;;;;;10.31;87.11;96850.91;4456455;32;20134;-78
2023/04/15 03:37:16;;;;;;;9.52;4.32;;;;;;;9.90;90.46;96848.22;4456837;32;20097;-79
2023/04/15 03:39:43;;;;;;;9.60;4.47;;;;;;;10.80;85.25;96853.87;4456713;32;20108;-78
2023/04/15 03:42:10;;;;;;;8.85;4.03;;;;;;;9.29;92.68;96842.28;4455216;32;20380;-79
2023/04/15 03:44:37;;;;;;;;;;;;;;;9.49;91.88;96849.72;4457203;32;20103;-79
2023/04/15 03:47:04;;;;;;;7.93;3.73;;;;;;;10.37;89.16;96856.53;4456934;32;19972;-79
2023/04/15 03:49:30;;;;;;;9.00;4.00;;;;;;;10.19;88.54;96851.63;4456312;32;20181;-79
2023/04/15 03:51:58;;;;;;;8.98;3.78;;;;;;;10.57;86.87;96857.91;4456734;32;20152;-79
2023/04/15 03:54:25;;;;;;;9.45;3.70;;;;;;;10.07;88.90;96856.59;4456706;32;20504;-79
2023/04/15 03:56:52;;;;;;;8.70;4.00;;;;;;;10.50;86.86;96858.38;4456365;32;20155;-79
2023/04/15 03:59:19;;;;;;;8.63;3.50;;;;;;;9.34;94.06;96854.88;4456597;32;20516;-79
2023/04/15 04:01:46;;;;;;;7.78;3.25;;;;;;;10.01;90.82;96858.72;4456516;32;20084;-79
2023/04/15 04:04:13;;;;;;;7.28;2.62;;;;;;;9.75;90.47;96862.81;4456232;32;20089;-79
2023/04/15 04:06:40;;;;;;;4.55;2.28;;;;;;;9.07;96.18;96862.41;4456622;32;20169;-79
2023/04/15 04:09:07;;;;;;;5.62;2.28;;;;;;;10.22;89.20;96860.06;4456683;32;20440;-79
2023/04/15 04:11:33;;;;;;;;;;;;;;;10.08;90.67;96865.16;4456328;32;20081;-78
2023/04/15 04:14:00;;;;;;;5.30;2.20;;;;;;;9.43;93.14;96862.09;4456581;32;19968;-79
2023/04/15 04:16:27;;;;;;;4.60;1.80;;;;;;;9.29;94.16;96857.72;4456537;32;20104;-79
2023/04/15 04:18:54;;;;;;;5.60;2.30;;;;;;;9.22;95.88;96856.41;4456107;32;20092;-78
2023/04/15 04:21:21;;;;;;;5.75;2.28;;;;;;;9.47;95.19;96854.13;4456540;32;20085;-78
2023/04/15 04:23:48;;;;;;;4.65;2.00;;;;;;;9.83;93.78;96848.56;4454932;32;20081;-78
2023/04/15 04:26:15;;;;;;;4.70;2.25;;;;;;;9.23;96.96;96858.06;4455461;32;20440;-78
2023/04/15 04:28:42;;;;;;;5.22;2.17;;;;;;;9.36;95.04;96858.19;4456343;32;20158;-78
2023/04/15 04:31:09;;;;;;;6.07;2.25;;;;;;;9.02;99.10;96864.41;4455027;32;20085;-78
2023/04/15 04:33:36;;;;;;;4.05;1.75;;;;;;;9.79;94.77;96857.41;4456370;32;20104;-78
2023/04/15 04:36:03;;;;;;;4.12;2.00;;;;;;;9.23;97.39;96863.22;4456509;32;20085;-78
2023/04/15 04:38:30;;;;;;;6.72;2.20;;;;;;;9.16;98.31;96857.59;4454783;32;20101;-78
2023/04/15 04:40:57;;;;;;;;;;;;;;;9.03;98.75;96868.63;4456763;32;20081;-78
2023/04/15 04:43:24;;;;;;;5.60;2.45;;;;;;;9.37;97.06;96863.28;4456429;32;19961;-79
2023/04/15 04:45:51;;;;;;;;;;;;;;;9.16;97.23;96867.06;4456384;32;20093;-78
2023/04/15 04:48:18;;;;;;;5.50;2.10;;;;;;;8.85;100.00;96870.50;4456387;32;20048;-78
2023/04/15 04:50:45;;;;;;;5.37;2.17;;;;;;;9.45;99.32;96863.66;4456466;32;20089;-79
2023/04/15 04:53:12;;;;;;;6.53;2.35;;;;;;;9.59;96.77;96870.63;4455907;32;20410;-78
2023/04/15 04:55:40;;;;;;;4.25;1.87;;;;;;;8.87;100.00;96866.91;4455013;32;20726;-78
2023/04/15 04:58:07;;;;;;;4.57;1.90;;;;;;;9.88;95.76;96863.75;4456291;32;20173;-79
2023/04/15 05:00:33;;;;;;;4.20;1.83;;;;;;;9.75;97.44;96865.38;4455979;32;20081;-79
2023/04/15 05:03:00;;;;;;;3.42;1.70;;;;;;;9.87;95.22;96872.41;4456099;32;20485;-78
2023/04/15 05:05:27;;;;;;;3.58;1.58;;;;;;;9.59;96.16;96874.94;4456234;32;20107;-78
2023/04/15 05:07:55;;;;;;;3.53;1.60;;;;;;;9.43;98.10;96867.25;4454699;32;20447;-78
2023/04/15 05:10:22;;;;;;;3.78;1.73;;;;;;;9.96;94.30;96871.03;4456254;32;20735;-79
2023/04/15 05:12:49;;;;;;;3.50;1.60;;;;;;;9.80;96.32;96877.09;4454345;32;20142;-78
2023/04/15 05:15:16;;;;;;;3.20;1.40;;;;;;;10.64;90.27;96866.94;4456117;32;20436;-78
2023/04/15 05:17:43;;;;;;;3.42;1.73;;;;;;;9.95;93.55;96880.50;4456160;32;20104;-78
2023/04/15 05:20:11;;;;;;;2.87;1.40;;;;;;;10.64;90.74;96877.25;4455830;32;20099;-78
2023/04/15 05:22:38;;;;;;;2.83;1.42;;;;;;;10.96;87.89;96889.91;4455981;32;20081;-78
2023/04/15 05:25:05;;;;;;;2.90;1.50;;;;;;;10.71;88.94;96883.66;4456112;32;20097;-79
2023/04/15 05:27:32;;;;;;;2.83;1.48;;;;;;;10.32;90.57;96878.38;4455735;32;20093;-78
2023/04/15 05:29:59;;;;;;;3.62;1.50;;;;;;;10.00;93.37;96877.69;4455916;32;20187;-78
2023/04/15 05:32:26;;;;;;;3.35;1.55;;;;;;;9.91;93.68;96879.03;4455509;32;20089;-78
2023/04/15 05:34:53;;;;;;;5.25;1.60;;;;;;;10.25;92.03;96885.63;4455726;32;20105;-78
2023/04/15 05:37:21;;;;;;;2.40;1.30;;;;;;;10.12;91.88;96882.09;4455942;32;20092;-78
2023/04/15 05:39:48;;;;;;;2.95;1.42;;;;;;;9.48;93.54;96878.94;4455976;32;20099;-78
2023/04/15 05:42:15;;;;;;;1.75;1.10;;;;;;;9.96;94.22;96879.59;4454989;32;20078;-78
2023/04/15 05:44:42;;;;;;;1.50;1.10;;;;;;;9.48;94.01;96883.28;4455863;32;20380;-78
2023/04/15 05:47:09;;;;;;;2.15;1.20;;;;;;;10.24;91.49;96881.41;4455851;32;20089;-78
2023/04/15 05:49:36;;;;;;;2.83;1.33;;;;;;;10.02;90.65;96883.56;4446689;32;278171;-78
2023/04/15 05:52:03;;;;;;;1.98;1.10;;;;;;;9.74;93.40;96886.91;4455509;32;20420;-79
2023/04/15 05:54:30;;;;;;;2.95;1.12;;;;;;;10.68;89.00;96893.34;4455764;32;20147;-79
2023/04/15 05:56:57;;;;;;;2.30;1.10;;;;;;;10.49;89.28;96890.22;4455328;32;20096;-78
2023/04/15 05:59:24;;;;;;;4.35;1.12;;;;;;;11.21;85.51;96897.75;4455579;32;20157;-78
2023/04/15 06:01:51;;;;;;;3.08;1.50;;;;;;;9.78;94.00;96890.97;4455370;32;20150;-78
2023/04/15 06:04:18;;;;;;;3.50;1.55;;;;;;;10.22;92.99;96895.31;4455462;32;20465;-78
2023/04/15 06:06:46;;;;;;;2.67;1.30;;;;;;;10.71;90.40;96896.56;4455619;32;20363;-79
2023/04/15 06:09:12;;;;;;;4.45;1.80;;;;;;;11.07;88.13;96902.12;4455198;32;20157;-79
2023/04/15 06:11:40;;;;;;;4.43;1.73;;;;;;;10.87;89.79;96903.38;4455241;32;20448;-79
2023/04/15 06:14:07;;;;;;;3.60;1.60;;;;;;;11.16;87.63;96907.53;4454114;32;20160;-78
2023/04/15 06:16:35;;;;;;;3.53;1.75;;;;;;;11.04;88.17;96910.06;4455067;32;20080;-78
2023/04/15 06:19:02;;;;;;;4.85;1.90;;;;;;;10.05;93.04;96904.81;4455368;32;20150;-78
2023/04/15 06:21:30;;;;;;;8.43;2.45;;;;;;;10.61;92.06;96913.53;4455316;32;20459;-78
2023/04/15 06:24:00;;;;;;;6.85;2.33;;;;;;;10.60;91.92;96911.03;4454905;32;20102;-78
2023/04/15 06:26:27;;;;;;;4.82;1.83;;;;;;;10.00;95.70;96906.03;4455393;32;20107;-78
2023/04/15 06:28:54;;;;;;;4.53;1.77;;;;;;;10.02;94.63;96911.91;4455136;32;20783;-79
2023/04/15 06:31:21;;;;;;;2.67;1.60;;;;;;;9.97;94.37;96913.91;4453845;32;20142;-79
2023/04/15 06:33:48;;;;;;;4.62;2.00;;;;;;;9.71;97.43;96912.84;4455119;32;20098;-78
2023/04/15 06:36:15;;;;;;;4.57;1.67;;;;;;;9.51;97.46;96916.56;4455088;32;20138;-78
2023/04/15 06:38:42;;;;;;;4.28;1.80;;;;;;;10.36;93.82;96918.50;4454614;32;20166;-79
2023/04/15 06:41:09;;;;;;;4.40;1.77;;;;;;;9.62;98.23;96923.69;4455169;32;20111;-79
2023/04/15 06:43:36;;;;;;;5.28;2.00;;;;;;;9.28;100.00;96923.00;4453789;32;20105;-79
2023/04/15 06:46:03;;;;;;;6.10;2.25;;;;;;;9.93;96.64;96921.00;4454711;32;20089;-78
2023/04/15 06:48:31;;;;;;;4.28;2.00;;;;;;;9.98;97.27;96923.31;4454835;32;20093;-79
2023/04/15 06:50:57;;;;;;;6.82;2.28;;;;;;;10.21;95.53;96929.69;4453887;32;20081;-78
2023/04/15 06:53:26;;;;;;;4.70;2.00;;;;;;;10.09;95.77;96923.50;4441110;32;20124;-78
2023/04/15 06:55:53;;;;;;;5.97;2.42;;;;;;;10.07;95.15;96926.19;4457080;32;20089;-78
2023/04/15 06:58:20;;;;;;;5.40;2.08;;;;;;;10.39;94.26;96926.88;4456678;32;20081;-79
2023/04/15 07:00:48;;;;;;;5.72;2.30;;;;;;;10.47;93.60;96934.16;4457251;32;20069;-78
2023/04/15 07:03:15;;;;;;;5.32;2.20;;;;;;;10.74;92.61;96931.69;4457060;32;20101;-78
2023/04/15 07:05:42;;;;;;;4.60;2.03;;;;;;;10.20;94.06;96943.50;4456765;32;20089;-78
2023/04/15 07:08:09;;;;;;;4.45;1.70;;;;;;;10.87;91.84;96945.50;4456994;32;20096;-78
2023/04/15 07:10:36;;;;;;;4.82;2.08;;;;;;;11.12;88.96;96949.97;4457115;32;20089;-78
2023/04/15 07:13:04;;;;;;;6.03;2.40;;;;;;;10.70;92.08;96943.09;4456363;32;20452;-79
2023/04/15 07:15:31;;;;;;;5.60;2.30;;;;;;;11.10;88.34;96946.66;4456967;32;20454;-79
2023/04/15 07:17:58;;;;;;;7.55;2.90;;;;;;;11.24;88.00;96951.75;4456854;32;20108;-79
2023/04/15 07:20:25;;;;;;;7.75;2.83;;;;;;;11.27;88.01;96956.75;4456781;32;20352;-79
2023/04/15 07:22:52;;;;;;;6.18;2.50;;;;;;;11.66;86.49;96952.56;4456881;32;20162;-79
2023/04/15 07:25:19;;;;;;;6.30;2.40;;;;;;;12.19;83.55;96955.19;4455842;32;20422;-78
2023/04/15 07:27:46;;;;;;;6.72;2.58;;;;;;;11.43;86.88;96958.38;4456526;32;20089;-78
2023/04/15 07:30:14;;;;;;;7.20;2.60;;;;;;;11.11;87.83;96953.47;4456869;32;20428;-79
2023/04/15 07:32:41;;;;;;;5.15;2.00;;;;;;;10.67;92.54;96957.03;4456720;32;20159;-79
2023/04/15 07:35:08;;;;;;;4.97;2.10;;;;;;;11.20;89.82;96965.81;4456456;32;20141;-79
2023/04/15 07:37:36;;;;;;;4.55;1.92;;;;;;;11.81;86.09;96974.03;4456704;32;20093;-79
2023/04/15 07:40:03;;;;;;;3.62;1.60;;;;;;;11.62;87.13;96971.78;4456918;32;20150;-78
2023/04/15 07:42:30;;;;;;;4.10;1.48;;;;;;;11.73;87.01;96982.25;4456334;32;20094;-78
2023/04/15 07:44:57;;;;;;;1.77;1.20;;;;;;;11.15;89.40;96977.31;4456800;32;20096;-78
2023/04/15 07:47:24;;;;;;;2.42;1.05;;;;;;;11.11;90.69;96981.03;4456512;32;20100;-78
2023/04/15 07:49:52;;;;;;;2.05;1.00;;;;;;;11.11;90.50;96981.03;4456614;32;20073;-78
2023/04/15 07:52:19;;;;;;;3.12;1.15;;;;;;;11.48;89.94;96982.13;4456732;32;20132;-78
2023/04/15 07:54:46;;;;;;;2.05;1.05;;;;;;;11.90;87.00;96985.50;4456879;32;20101;-81
2023/04/15 07:57:12;;;;;;;1.50;0.85;;;;;;;12.52;86.13;96978.78;4456620;32;20150;-82
2023/04/15 07:59:40;;;;;;;1.70;0.80;;;;;;;12.43;84.68;96977.63;4456631;32;20404;-81
2023/04/15 08:02:07;;;;;;;1.48;1.00;;;;;;;12.28;83.89;96972.66;4456272;32;20154;-81
2023/04/15 08:04:34;;;;;;;1.90;1.00;;;;;;;12.18;84.39;96976.78;4456455;32;20085;-82
2023/04/15 08:07:03;;;;;;;2.35;1.10;;;;;;;12.38;82.49;96981.47;4456592;32;20089;-82
2023/04/15 08:09:30;;;;;;;2.37;1.20;;;;;;;11.75;85.17;96988.13;4456141;32;20085;-81
2023/04/15 08:11:56;;;;;;;3.17;1.33;;;;;;;12.03;85.67;96994.97;4456363;32;20452;-81
2023/04/15 08:14:23;;;;;;;2.28;1.10;;;;;;;12.12;85.80;96983.19;4455427;32;20113;-82
2023/04/15 08:16:50;;;;;;;1.80;1.08;;;;;;;11.85;85.95;96991.81;4456272;32;20142;-82
2023/04/15 08:19:17;;;;;;;2.20;1.27;;;;;;;12.14;84.20;96986.53;4456477;32;20146;-82
2023/04/15 08:21:44;;;;;;;1.95;1.20;;;;;;;11.73;86.31;96992.59;4456707;32;20150;-82
2023/04/15 08:24:11;;;;;;;2.55;1.30;;;;;;;11.87;85.55;97000.31;4456130;32;20093;-82
2023/04/15 08:26:38;;;;;;;2.47;1.50;;;;;;;12.10;85.45;97001.38;4456544;32;20084;-82
2023/04/15 08:29:05;;;;;;;3.05;1.30;;;;;;;11.35;87.88;97000.16;4456373;32;20604;-81
2023/04/15 08:31:32;;;;;;;2.25;1.15;;;;;;;11.08;88.98;97002.72;4456351;32;20153;-82
2023/04/15 08:34:00;;;;;;;3.37;1.12;;;;;;;10.84;90.03;97010.16;4456419;32;20101;-82
2023/04/15 08:36:27;;;;;;;2.60;1.10;;;;;;;11.16;90.32;97009.97;4456080;32;20454;-81
2023/04/15 08:38:54;;;;;;;3.40;1.10;;;;;;;11.00;91.78;97010.91;4456342;32;20077;-82
2023/04/15 08:41:23;;;;;;;2.55;1.20;;;;;;;11.03;91.91;97002.16;4456556;32;20413;-82
2023/04/15 08:43:56;;;;;;;1.80;1.00;;;;;;;11.54;90.51;97013.59;4454858;32;20101;-82
2023/04/15 08:46:24;;;;;;;2.17;1.00;;;;;;;11.50;90.33;97017.31;4456545;32;20142;-82
2023/04/15 08:48:51;;;;;;;2.03;1.10;;;;;;;11.17;91.77;97011.66;4456259;32;20415;-82
2023/04/15 08:51:18;;;;;;;1.70;1.10;;;;;;;11.07;91.63;97019.13;4455576;32;20123;-82
2023/04/15 08:53:46;;;;;;;1.83;1.10;;;;;;;10.80;93.82;97021.59;4454639;32;20185;-83
2023/04/15 08:56:15;;;;;;;2.45;1.25;;;;;;;10.83;92.77;97020.59;4456318;32;20256;-82
2023/04/15 08:58:45;;;;;;;2.03;1.17;;;;;;;11.60;89.99;97022.72;4455893;32;20142;-83
2023/04/15 09:01:12;;;;;;;2.42;1.23;;;;;;;11.63;89.99;97022.50;4456363;32;20097;-83
2023/04/15 09:03:40;;;;;;;3.12;1.37;;;;;;;11.44;92.43;97032.34;4456528;32;20111;-80
2023/04/15 09:06:07;;;;;;;2.58;1.40;;;;;;;11.79;89.13;97033.56;4455955;32;20085;-81
2023/04/15 09:08:34;;;;;;;2.95;1.42;;;;;;;12.40;87.45;97027.00;4456163;32;20084;-81
2023/04/15 09:11:04;;;;;;;2.53;1.40;;;;;;;12.77;84.12;97024.56;4456297;32;20088;-81
2023/04/15 09:13:31;;;;;;;2.53;1.25;;;;;;;12.42;85.58;97024.31;4455591;32;20097;-81
2023/04/15 09:16:02;;;;;;;2.78;1.20;;;;;;;12.97;82.88;97036.13;4455324;32;20081;-81
2023/04/15 09:18:31;;;;;;;3.75;1.30;;;;;;;12.55;82.51;97038.09;4455958;32;20137;-81
2023/04/15 09:21:15;;;;;;;3.20;1.40;;;;;;;12.23;85.13;97045.41;4456235;32;20501;-81
2023/04/15 09:23:58;;;;;;;2.22;1.27;;;;;;;12.30;85.88;97044.06;4456124;32;20105;-81
2023/04/15 09:26:44;;;;;;;3.55;1.30;;;;;;;12.20;84.79;97043.00;4455738;32;20146;-81
2023/04/15 09:29:12;;;;;;;2.25;1.27;;;;;;;12.24;87.02;97039.28;4455958;32;20120;-81
2023/04/15 09:31:40;;;;;;;2.53;1.30;;;;;;;12.58;83.83;97044.84;4456176;32;20509;-81
2023/04/15 09:34:07;;;;;;;2.90;1.40;;;;;;;12.01;85.13;97048.50;4455678;32;20104;-81
2023/04/15 09:36:55;;;;;;;2.85;1.40;;;;;;;12.58;83.71;97044.84;4455975;32;20149;-81
2023/04/15 09:39:22;;;;;;;4.25;1.60;;;;;;;12.58;83.25;97042.25;4455815;32;20107;-81
2023/04/15 09:42:06;;;;;;;3.05;1.40;;;;;;;12.18;85.56;97050.03;4455744;32;20384;-81
2023/04/15 09:44:33;;;;;;;3.47;1.40;;;;;;;11.81;88.08;97051.56;4455941;32;20131;-81
2023/04/15 09:47:00;;;;;;;2.90;1.50;;;;;;;12.30;87.97;97045.81;4455556;32;20085;-81
2023/04/15 09:49:27;;;;;;;3.10;1.40;;;;;;;12.07;89.62;97050.72;4455710;32;20104;-81
2023/04/15 09:51:59;;;;;;;5.75;2.10;;;;;;;11.95;88.08;97053.28;4454812;32;20380;-81
2023/04/15 09:54:32;;;;;;;;;;;;;;;12.30;86.92;97056.16;4455861;32;20496;-81
2023/04/15 09:57:08;;;;;;;3.33;1.50;;;;;;;12.34;85.90;97058.47;4455799;32;19968;-81
2023/04/15 09:59:36;;;;;;;2.55;1.12;;;;;;;12.10;86.58;97050.50;4455647;32;20103;-82
2023/04/15 10:02:09;;;;;;;3.22;1.40;;;;;;;11.84;89.54;97056.53;4455326;32;20109;-82
2023/04/15 10:04:39;;;;;;;4.37;1.60;;;;;;;11.88;89.03;97058.81;4455782;32;20503;-81
2023/04/15 10:07:08;;;;;;;2.08;1.08;;;;;;;11.86;87.86;97057.25;4455798;32;20103;-81
2023/04/15 10:09:35;;;;;;;3.15;1.40;;;;;;;11.89;88.76;97057.06;4455159;32;20116;-81
2023/04/15 10:12:04;;;;;;;2.90;1.30;;;;;;;11.91;88.83;97056.97;4455323;32;20170;-81
2023/04/15 10:14:33;;;;;;;3.70;1.60;;;;;;;11.97;88.41;97070.34;4455433;32;20104;-81
2023/04/15 10:17:01;;;;;;;3.42;1.40;;;;;;;12.37;86.85;97066.00;4454163;32;20154;-81
2023/04/15 10:19:31;;;;;;;2.45;1.45;;;;;;;12.13;89.07;97060.69;4455328;32;20078;-81
2023/04/15 10:21:58;;;;;;;2.33;1.30;;;;;;;12.07;88.62;97058.47;4455233;32;20146;-81
2023/04/15 10:24:25;;;;;;;2.00;1.23;;;;;;;12.62;86.37;97051.44;4455392;32;20237;-81
2023/04/15 10:26:53;;;;;;;3.17;1.40;;;;;;;12.54;85.64;97066.66;4454134;32;20089;-81
2023/04/15 10:29:20;;;;;;;2.62;1.20;;;;;;;12.60;84.88;97055.91;4455758;32;20161;-81
2023/04/15 10:31:47;;;;;;;3.75;1.42;;;;;;;12.37;82.68;97065.19;4457436;32;20101;-81
2023/04/15 10:34:14;;;;;;;1.77;1.10;;;;;;;12.55;84.92;97066.56;4456090;32;20125;-81
2023/04/15 10:36:41;;;;;;;2.85;1.15;;;;;;;12.29;85.41;97070.03;4456920;32;20085;-81
2023/04/15 10:39:33;;;;;;;1.58;0.85;;;;;;;12.55;88.34;97069.16;4457268;32;20135;-81
2023/04/15 10:42:32;;;;;;;1.17;0.80;;;;;;;12.95;81.07;97062.12;4457280;32;20477;-81
2023/04/15 10:44:59;;;;;;;1.90;0.98;;;;;;;13.72;84.73;97062.88;4457264;32;20162;-81
2023/04/15 10:47:27;;;;;;;2.37;1.00;;;;;;;13.55;77.10;97056.28;4457286;32;20085;-81
2023/04/15 10:49:58;;;;;;;1.35;0.80;;;;;;;13.34;78.39;97062.12;4456806;32;20097;-81
2023/04/15 10:52:27;;;;;;;1.62;0.98;;;;;;;13.32;77.64;97062.22;4457184;32;20097;-81
2023/04/15 10:55:09;;;;;;;1.05;0.75;;;;;;;13.95;80.36;97065.56;4457233;32;20085;-81
2023/04/15 10:57:40;;;;;;;2.30;0.93;;;;;;;13.79;78.01;97074.44;4456919;32;20103;-81
2023/04/15 11:00:10;;;;;;;1.45;1.00;;;;;;;13.73;77.67;97063.69;4457056;32;20089;-81
2023/04/15 11:02:41;;;;;;;2.05;0.93;;;;;;;13.62;75.18;97068.81;4457176;32;20451;-82
2023/04/15 11:05:16;;;;;;;1.30;0.90;;;;;;;13.63;76.67;97070.47;4456922;32;20089;-81
2023/04/15 11:07:50;;;;;;;2.05;1.05;;;;;;;13.66;77.96;97067.66;4457007;32;20088;-81
2023/04/15 11:10:17;;;;;;;2.05;1.10;;;;;;;13.66;77.41;97067.66;4457061;32;20131;-81
2023/04/15 11:12:44;;;;;;;2.20;0.90;;;;;;;14.66;70.53;97067.28;4456419;32;20117;-81
2023/04/15 11:15:29;;;;;;;1.58;0.80;;;;;;;13.95;72.17;97073.34;4457115;32;20089;-81
2023/04/15 11:17:56;;;;;;;2.62;1.10;;;;;;;14.63;68.65;97073.53;4456642;32;20085;-81
2023/04/15 11:20:24;;;;;;;1.08;0.73;;;;;;;15.10;71.48;97065.69;4456926;32;20108;-81
2023/04/15 11:22:53;;;;;;;1.08;0.77;;;;;;;15.03;66.13;97070.53;4456937;32;20112;-81
2023/04/15 11:25:40;;;;;;;1.80;0.90;;;;;;;14.93;65.43;97066.97;4456599;32;20541;-81
2023/04/15 11:28:07;;;;;;;1.05;0.85;;;;;;;14.99;70.21;97074.28;4456945;32;20105;-81
2023/04/15 11:30:36;;;;;;;1.92;0.98;;;;;;;14.80;63.37;97066.25;4456878;32;20089;-81
2023/04/15 11:33:08;;;;;;;1.70;0.90;;;;;;;15.24;66.68;97066.28;4456483;32;20115;-81
2023/04/15 11:35:35;;;;;;;1.42;1.00;;;;;;;15.02;67.80;97066.28;4456982;32;20162;-82
2023/04/15 11:38:13;;;;;;;2.03;1.02;;;;;;;14.35;67.33;97072.09;4456702;32;20097;-82
2023/04/15 11:40:40;;;;;;;2.50;1.20;;;;;;;13.69;72.84;97073.44;4456149;32;20142;-81